sim
Sign-in with your pilot id or email,
or register
Callsign
Passwort

Schedule Details

Flight Number: RYR5469
Departure: Fuerteventura Airport (GCFV) at 13:20
Arrival: Madrid Barajas Airport (LEMD) at 16:00
Route: Ryanair Passenger Schedule. Enter filed route here before submitting Pirep.

Weather Information
Getting current METAR information for GCFV 182000Z 36016KT 9999 FEW045 18/11 Q1019
Getting current METAR information for LEMD 182000Z VRB02KT 8000 -RA SCT034 OVC040 10/09 Q1013 R88/29//95 TEMPO NSW

Schedule Frequency

Route Map